sensor_id;sensor_type;location;lat;lon;timestamp;P1;durP1;ratioP1;P2;durP2;ratioP2
21046;SDS011;10682;50.874;3.656;2022-12-07T00:01:24;23.83;;;13.03;;
21046;SDS011;10682;50.874;3.656;2022-12-07T00:03:54;22.40;;;12.37;;
21046;SDS011;10682;50.874;3.656;2022-12-07T00:06:31;29.87;;;14.50;;
21046;SDS011;10682;50.874;3.656;2022-12-07T00:09:11;26.60;;;14.07;;
21046;SDS011;10682;50.874;3.656;2022-12-07T00:11:42;29.50;;;15.43;;
21046;SDS011;10682;50.874;3.656;2022-12-07T00:14:11;32.03;;;16.37;;
21046;SDS011;10682;50.874;3.656;2022-12-07T00:16:41;30.30;;;15.43;;
21046;SDS011;10682;50.874;3.656;2022-12-07T00:19:10;28.13;;;15.13;;
21046;SDS011;10682;50.874;3.656;2022-12-07T00:21:39;26.70;;;14.70;;
21046;SDS011;10682;50.874;3.656;2022-12-07T00:24:06;25.13;;;13.77;;
21046;SDS011;10682;50.874;3.656;2022-12-07T00:26:35;27.17;;;13.97;;
21046;SDS011;10682;50.874;3.656;2022-12-07T00:29:09;26.73;;;14.07;;
21046;SDS011;10682;50.874;3.656;2022-12-07T00:31:43;26.73;;;14.30;;
21046;SDS011;10682;50.874;3.656;2022-12-07T00:34:14;26.07;;;13.90;;
21046;SDS011;10682;50.874;3.656;2022-12-07T00:36:46;25.43;;;13.40;;
21046;SDS011;10682;50.874;3.656;2022-12-07T00:39:14;28.50;;;13.90;;
21046;SDS011;10682;50.874;3.656;2022-12-07T00:41:42;28.53;;;13.30;;
21046;SDS011;10682;50.874;3.656;2022-12-07T00:44:09;27.33;;;14.17;;
21046;SDS011;10682;50.874;3.656;2022-12-07T00:46:36;31.23;;;14.60;;
21046;SDS011;10682;50.874;3.656;2022-12-07T00:49:03;27.63;;;13.03;;
21046;SDS011;10682;50.874;3.656;2022-12-07T00:51:30;29.50;;;13.80;;
21046;SDS011;10682;50.874;3.656;2022-12-07T00:53:57;24.53;;;13.87;;
21046;SDS011;10682;50.874;3.656;2022-12-07T00:56:25;22.17;;;13.07;;
21046;SDS011;10682;50.874;3.656;2022-12-07T00:58:55;25.13;;;12.90;;
21046;SDS011;10682;50.874;3.656;2022-12-07T01:01:26;23.30;;;12.50;;
21046;SDS011;10682;50.874;3.656;2022-12-07T01:03:56;25.30;;;13.80;;
21046;SDS011;10682;50.874;3.656;2022-12-07T01:06:24;28.87;;;13.87;;
21046;SDS011;10682;50.874;3.656;2022-12-07T01:08:52;23.90;;;12.33;;
21046;SDS011;10682;50.874;3.656;2022-12-07T01:11:21;20.97;;;12.77;;
21046;SDS011;10682;50.874;3.656;2022-12-07T01:13:51;27.63;;;14.03;;
21046;SDS011;10682;50.874;3.656;2022-12-07T01:16:20;22.87;;;13.73;;
21046;SDS011;10682;50.874;3.656;2022-12-07T01:18:49;23.03;;;12.33;;
21046;SDS011;10682;50.874;3.656;2022-12-07T01:21:20;27.37;;;12.47;;
21046;SDS011;10682;50.874;3.656;2022-12-07T01:23:58;24.93;;;13.17;;
21046;SDS011;10682;50.874;3.656;2022-12-07T01:26:26;26.07;;;13.00;;
21046;SDS011;10682;50.874;3.656;2022-12-07T01:28:53;24.23;;;13.03;;
21046;SDS011;10682;50.874;3.656;2022-12-07T01:31:22;25.40;;;12.90;;
21046;SDS011;10682;50.874;3.656;2022-12-07T01:33:52;22.73;;;12.30;;
21046;SDS011;10682;50.874;3.656;2022-12-07T01:36:29;26.27;;;13.30;;
21046;SDS011;10682;50.874;3.656;2022-12-07T01:39:00;27.07;;;12.70;;
21046;SDS011;10682;50.874;3.656;2022-12-07T01:41:33;27.27;;;13.10;;
21046;SDS011;10682;50.874;3.656;2022-12-07T01:47:39;21.33;;;12.67;;
21046;SDS011;10682;50.874;3.656;2022-12-07T01:50:07;25.50;;;13.33;;
21046;SDS011;10682;50.874;3.656;2022-12-07T01:52:35;21.83;;;13.53;;
21046;SDS011;10682;50.874;3.656;2022-12-07T01:55:05;27.63;;;13.90;;
21046;SDS011;10682;50.874;3.656;2022-12-07T01:57:37;23.67;;;13.77;;
21046;SDS011;10682;50.874;3.656;2022-12-07T02:00:10;26.53;;;14.00;;
21046;SDS011;10682;50.874;3.656;2022-12-07T02:02:43;29.47;;;14.10;;
21046;SDS011;10682;50.874;3.656;2022-12-07T02:05:34;29.80;;;13.97;;
21046;SDS011;10682;50.874;3.656;2022-12-07T02:08:03;24.27;;;13.13;;
21046;SDS011;10682;50.874;3.656;2022-12-07T02:10:31;32.33;;;14.70;;
21046;SDS011;10682;50.874;3.656;2022-12-07T02:13:06;29.10;;;13.60;;
21046;SDS011;10682;50.874;3.656;2022-12-07T02:16:00;29.50;;;13.63;;
21046;SDS011;10682;50.874;3.656;2022-12-07T02:21:59;25.00;;;12.37;;
21046;SDS011;10682;50.874;3.656;2022-12-07T02:24:53;22.20;;;12.07;;
21046;SDS011;10682;50.874;3.656;2022-12-07T02:30:08;23.67;;;11.60;;
21046;SDS011;10682;50.874;3.656;2022-12-07T02:32:42;20.67;;;11.00;;
21046;SDS011;10682;50.874;3.656;2022-12-07T02:38:20;18.63;;;10.33;;
21046;SDS011;10682;50.874;3.656;2022-12-07T02:41:31;19.03;;;10.57;;
21046;SDS011;10682;50.874;3.656;2022-12-07T02:44:05;24.70;;;10.90;;
21046;SDS011;10682;50.874;3.656;2022-12-07T02:46:43;24.67;;;11.73;;
21046;SDS011;10682;50.874;3.656;2022-12-07T02:49:17;18.37;;;10.60;;
21046;SDS011;10682;50.874;3.656;2022-12-07T02:51:45;19.97;;;11.30;;
21046;SDS011;10682;50.874;3.656;2022-12-07T02:54:13;20.77;;;11.13;;
21046;SDS011;10682;50.874;3.656;2022-12-07T02:56:49;23.80;;;11.47;;
21046;SDS011;10682;50.874;3.656;2022-12-07T03:02:30;21.43;;;11.43;;
21046;SDS011;10682;50.874;3.656;2022-12-07T03:05:28;20.70;;;11.00;;
21046;SDS011;10682;50.874;3.656;2022-12-07T03:11:15;21.23;;;10.93;;
21046;SDS011;10682;50.874;3.656;2022-12-07T03:14:18;23.80;;;11.90;;
21046;SDS011;10682;50.874;3.656;2022-12-07T03:16:57;23.70;;;11.83;;
21046;SDS011;10682;50.874;3.656;2022-12-07T03:19:38;25.33;;;11.77;;
21046;SDS011;10682;50.874;3.656;2022-12-07T03:22:10;24.63;;;12.37;;
21046;SDS011;10682;50.874;3.656;2022-12-07T03:24:42;26.47;;;11.93;;
21046;SDS011;10682;50.874;3.656;2022-12-07T03:27:16;22.87;;;12.40;;
21046;SDS011;10682;50.874;3.656;2022-12-07T03:30:05;24.27;;;12.13;;
21046;SDS011;10682;50.874;3.656;2022-12-07T03:32:41;24.13;;;11.87;;
21046;SDS011;10682;50.874;3.656;2022-12-07T03:35:31;25.83;;;11.77;;
21046;SDS011;10682;50.874;3.656;2022-12-07T03:39:19;22.57;;;11.53;;
21046;SDS011;10682;50.874;3.656;2022-12-07T03:41:49;21.10;;;11.23;;
21046;SDS011;10682;50.874;3.656;2022-12-07T03:44:17;20.80;;;11.53;;
21046;SDS011;10682;50.874;3.656;2022-12-07T03:47:01;21.43;;;11.40;;
21046;SDS011;10682;50.874;3.656;2022-12-07T03:52:26;21.67;;;11.83;;
21046;SDS011;10682;50.874;3.656;2022-12-07T03:55:11;29.60;;;11.50;;
21046;SDS011;10682;50.874;3.656;2022-12-07T03:57:47;20.57;;;11.07;;
21046;SDS011;10682;50.874;3.656;2022-12-07T04:00:18;22.93;;;11.80;;
21046;SDS011;10682;50.874;3.656;2022-12-07T04:02:45;22.03;;;10.70;;
21046;SDS011;10682;50.874;3.656;2022-12-07T04:05:13;24.17;;;11.30;;
21046;SDS011;10682;50.874;3.656;2022-12-07T04:07:40;26.90;;;11.23;;
21046;SDS011;10682;50.874;3.656;2022-12-07T04:10:08;23.03;;;11.50;;
21046;SDS011;10682;50.874;3.656;2022-12-07T04:12:36;22.23;;;11.27;;
21046;SDS011;10682;50.874;3.656;2022-12-07T04:15:03;17.20;;;10.30;;
21046;SDS011;10682;50.874;3.656;2022-12-07T04:17:31;19.73;;;10.77;;
21046;SDS011;10682;50.874;3.656;2022-12-07T04:19:58;23.47;;;10.77;;
21046;SDS011;10682;50.874;3.656;2022-12-07T04:22:26;21.20;;;11.03;;
21046;SDS011;10682;50.874;3.656;2022-12-07T04:24:53;24.43;;;10.93;;
21046;SDS011;10682;50.874;3.656;2022-12-07T04:27:20;21.30;;;10.90;;
21046;SDS011;10682;50.874;3.656;2022-12-07T04:29:47;23.63;;;10.93;;
21046;SDS011;10682;50.874;3.656;2022-12-07T04:32:14;21.87;;;11.20;;
21046;SDS011;10682;50.874;3.656;2022-12-07T04:34:41;21.03;;;10.90;;
21046;SDS011;10682;50.874;3.656;2022-12-07T04:37:07;24.73;;;11.10;;
21046;SDS011;10682;50.874;3.656;2022-12-07T04:39:34;22.23;;;11.90;;
21046;SDS011;10682;50.874;3.656;2022-12-07T04:42:02;21.63;;;10.80;;
21046;SDS011;10682;50.874;3.656;2022-12-07T04:44:29;23.07;;;10.97;;
21046;SDS011;10682;50.874;3.656;2022-12-07T04:46:57;23.93;;;11.00;;
21046;SDS011;10682;50.874;3.656;2022-12-07T04:49:24;25.33;;;10.77;;
21046;SDS011;10682;50.874;3.656;2022-12-07T04:51:51;20.90;;;10.90;;
21046;SDS011;10682;50.874;3.656;2022-12-07T04:54:19;20.33;;;10.60;;
21046;SDS011;10682;50.874;3.656;2022-12-07T04:56:46;21.97;;;11.63;;
21046;SDS011;10682;50.874;3.656;2022-12-07T04:59:14;21.87;;;10.80;;
21046;SDS011;10682;50.874;3.656;2022-12-07T05:01:43;22.00;;;10.70;;
21046;SDS011;10682;50.874;3.656;2022-12-07T05:04:10;23.10;;;10.97;;
21046;SDS011;10682;50.874;3.656;2022-12-07T05:06:37;23.63;;;11.17;;
21046;SDS011;10682;50.874;3.656;2022-12-07T05:09:04;24.90;;;11.30;;
21046;SDS011;10682;50.874;3.656;2022-12-07T05:11:31;25.47;;;10.90;;
21046;SDS011;10682;50.874;3.656;2022-12-07T05:14:06;21.17;;;10.90;;
21046;SDS011;10682;50.874;3.656;2022-12-07T05:16:40;25.03;;;12.47;;
21046;SDS011;10682;50.874;3.656;2022-12-07T05:19:08;24.53;;;12.03;;
21046;SDS011;10682;50.874;3.656;2022-12-07T05:21:36;26.63;;;12.07;;
21046;SDS011;10682;50.874;3.656;2022-12-07T05:24:05;28.57;;;12.47;;
21046;SDS011;10682;50.874;3.656;2022-12-07T05:26:34;22.13;;;11.73;;
21046;SDS011;10682;50.874;3.656;2022-12-07T05:29:01;18.63;;;11.40;;
21046;SDS011;10682;50.874;3.656;2022-12-07T05:31:28;29.17;;;12.90;;
21046;SDS011;10682;50.874;3.656;2022-12-07T05:33:55;23.80;;;12.67;;
21046;SDS011;10682;50.874;3.656;2022-12-07T05:36:23;25.13;;;11.30;;
21046;SDS011;10682;50.874;3.656;2022-12-07T05:38:50;24.23;;;11.47;;
21046;SDS011;10682;50.874;3.656;2022-12-07T05:41:17;20.73;;;11.73;;
21046;SDS011;10682;50.874;3.656;2022-12-07T05:44:04;25.57;;;11.73;;
21046;SDS011;10682;50.874;3.656;2022-12-07T05:46:31;25.63;;;11.77;;
21046;SDS011;10682;50.874;3.656;2022-12-07T05:48:59;23.90;;;11.30;;
21046;SDS011;10682;50.874;3.656;2022-12-07T05:51:26;22.47;;;11.27;;
21046;SDS011;10682;50.874;3.656;2022-12-07T05:53:53;18.57;;;9.67;;
21046;SDS011;10682;50.874;3.656;2022-12-07T05:56:20;24.67;;;10.23;;
21046;SDS011;10682;50.874;3.656;2022-12-07T05:58:48;19.17;;;10.07;;
21046;SDS011;10682;50.874;3.656;2022-12-07T06:01:33;23.00;;;9.77;;
21046;SDS011;10682;50.874;3.656;2022-12-07T06:04:00;22.43;;;9.83;;
21046;SDS011;10682;50.874;3.656;2022-12-07T06:06:27;23.13;;;8.93;;
21046;SDS011;10682;50.874;3.656;2022-12-07T06:08:54;18.60;;;9.20;;
21046;SDS011;10682;50.874;3.656;2022-12-07T06:11:21;20.23;;;9.67;;
21046;SDS011;10682;50.874;3.656;2022-12-07T06:14:06;19.23;;;9.77;;
21046;SDS011;10682;50.874;3.656;2022-12-07T06:16:33;19.47;;;10.07;;
21046;SDS011;10682;50.874;3.656;2022-12-07T06:19:00;18.73;;;10.60;;
21046;SDS011;10682;50.874;3.656;2022-12-07T06:21:27;15.97;;;9.93;;
21046;SDS011;10682;50.874;3.656;2022-12-07T06:23:54;22.23;;;10.37;;
21046;SDS011;10682;50.874;3.656;2022-12-07T06:26:22;21.97;;;9.83;;
21046;SDS011;10682;50.874;3.656;2022-12-07T06:28:49;20.30;;;9.77;;
21046;SDS011;10682;50.874;3.656;2022-12-07T06:31:16;16.83;;;9.13;;
21046;SDS011;10682;50.874;3.656;2022-12-07T06:33:43;21.33;;;9.50;;
21046;SDS011;10682;50.874;3.656;2022-12-07T06:36:10;26.60;;;9.90;;
21046;SDS011;10682;50.874;3.656;2022-12-07T06:38:37;30.33;;;9.87;;
21046;SDS011;10682;50.874;3.656;2022-12-07T06:41:04;22.53;;;10.63;;
21046;SDS011;10682;50.874;3.656;2022-12-07T06:43:32;20.63;;;9.87;;
21046;SDS011;10682;50.874;3.656;2022-12-07T06:46:00;20.33;;;9.37;;
21046;SDS011;10682;50.874;3.656;2022-12-07T06:48:27;20.43;;;8.80;;
21046;SDS011;10682;50.874;3.656;2022-12-07T06:50:54;22.20;;;9.47;;
21046;SDS011;10682;50.874;3.656;2022-12-07T06:53:21;28.03;;;9.97;;
21046;SDS011;10682;50.874;3.656;2022-12-07T06:55:49;18.47;;;9.23;;
21046;SDS011;10682;50.874;3.656;2022-12-07T06:58:16;23.57;;;10.27;;
21046;SDS011;10682;50.874;3.656;2022-12-07T07:00:44;21.40;;;9.47;;
21046;SDS011;10682;50.874;3.656;2022-12-07T07:03:12;23.40;;;9.43;;
21046;SDS011;10682;50.874;3.656;2022-12-07T07:05:39;18.30;;;9.43;;
21046;SDS011;10682;50.874;3.656;2022-12-07T07:08:06;22.47;;;10.10;;
21046;SDS011;10682;50.874;3.656;2022-12-07T07:10:49;24.13;;;10.93;;
21046;SDS011;10682;50.874;3.656;2022-12-07T07:13:16;24.70;;;11.90;;
21046;SDS011;10682;50.874;3.656;2022-12-07T07:15:44;24.67;;;11.73;;
21046;SDS011;10682;50.874;3.656;2022-12-07T07:18:11;26.37;;;11.33;;
21046;SDS011;10682;50.874;3.656;2022-12-07T07:20:38;24.20;;;11.23;;
21046;SDS011;10682;50.874;3.656;2022-12-07T07:23:06;22.80;;;10.87;;
21046;SDS011;10682;50.874;3.656;2022-12-07T07:25:33;24.53;;;11.13;;
21046;SDS011;10682;50.874;3.656;2022-12-07T07:28:01;24.67;;;11.00;;
21046;SDS011;10682;50.874;3.656;2022-12-07T07:30:29;30.43;;;11.60;;
21046;SDS011;10682;50.874;3.656;2022-12-07T07:32:59;21.93;;;10.33;;
21046;SDS011;10682;50.874;3.656;2022-12-07T07:35:28;28.53;;;10.10;;
21046;SDS011;10682;50.874;3.656;2022-12-07T07:37:57;21.33;;;9.97;;
21046;SDS011;10682;50.874;3.656;2022-12-07T07:40:24;28.53;;;12.13;;
21046;SDS011;10682;50.874;3.656;2022-12-07T07:42:53;26.63;;;12.53;;
21046;SDS011;10682;50.874;3.656;2022-12-07T07:45:21;31.30;;;12.23;;
21046;SDS011;10682;50.874;3.656;2022-12-07T07:47:50;26.67;;;12.20;;
21046;SDS011;10682;50.874;3.656;2022-12-07T07:50:17;28.60;;;11.90;;
21046;SDS011;10682;50.874;3.656;2022-12-07T07:52:45;20.07;;;11.17;;
21046;SDS011;10682;50.874;3.656;2022-12-07T07:55:12;21.67;;;10.83;;
21046;SDS011;10682;50.874;3.656;2022-12-07T07:57:40;30.50;;;11.47;;
21046;SDS011;10682;50.874;3.656;2022-12-07T08:00:08;25.93;;;11.50;;
21046;SDS011;10682;50.874;3.656;2022-12-07T08:02:38;28.63;;;12.30;;
21046;SDS011;10682;50.874;3.656;2022-12-07T08:05:07;37.50;;;13.63;;
21046;SDS011;10682;50.874;3.656;2022-12-07T08:07:34;42.10;;;15.40;;
21046;SDS011;10682;50.874;3.656;2022-12-07T08:10:01;30.20;;;12.40;;
21046;SDS011;10682;50.874;3.656;2022-12-07T08:12:30;30.07;;;11.80;;
21046;SDS011;10682;50.874;3.656;2022-12-07T08:14:56;27.10;;;11.17;;
21046;SDS011;10682;50.874;3.656;2022-12-07T08:17:23;26.67;;;12.63;;
21046;SDS011;10682;50.874;3.656;2022-12-07T08:19:51;27.53;;;14.50;;
21046;SDS011;10682;50.874;3.656;2022-12-07T08:22:18;33.77;;;14.60;;
21046;SDS011;10682;50.874;3.656;2022-12-07T08:24:45;27.77;;;12.40;;
21046;SDS011;10682;50.874;3.656;2022-12-07T08:27:12;23.47;;;12.03;;
21046;SDS011;10682;50.874;3.656;2022-12-07T08:29:39;30.40;;;12.00;;
21046;SDS011;10682;50.874;3.656;2022-12-07T08:32:06;26.27;;;11.83;;
21046;SDS011;10682;50.874;3.656;2022-12-07T08:34:35;30.33;;;12.13;;
21046;SDS011;10682;50.874;3.656;2022-12-07T08:37:03;21.27;;;10.77;;
21046;SDS011;10682;50.874;3.656;2022-12-07T08:39:30;22.70;;;10.07;;
21046;SDS011;10682;50.874;3.656;2022-12-07T08:41:58;27.67;;;11.03;;
21046;SDS011;10682;50.874;3.656;2022-12-07T08:44:25;25.50;;;11.10;;
21046;SDS011;10682;50.874;3.656;2022-12-07T08:46:53;25.97;;;10.83;;
21046;SDS011;10682;50.874;3.656;2022-12-07T08:49:36;23.40;;;11.43;;
21046;SDS011;10682;50.874;3.656;2022-12-07T08:52:10;25.13;;;11.03;;
21046;SDS011;10682;50.874;3.656;2022-12-07T08:54:38;24.43;;;10.70;;
21046;SDS011;10682;50.874;3.656;2022-12-07T08:57:06;24.13;;;10.10;;
21046;SDS011;10682;50.874;3.656;2022-12-07T08:59:35;25.03;;;10.83;;
21046;SDS011;10682;50.874;3.656;2022-12-07T09:02:04;24.77;;;10.03;;
21046;SDS011;10682;50.874;3.656;2022-12-07T09:04:32;26.87;;;9.90;;
21046;SDS011;10682;50.874;3.656;2022-12-07T09:06:59;19.30;;;9.70;;
21046;SDS011;10682;50.874;3.656;2022-12-07T09:09:26;26.93;;;11.80;;
21046;SDS011;10682;50.874;3.656;2022-12-07T09:11:53;25.80;;;10.27;;
21046;SDS011;10682;50.874;3.656;2022-12-07T09:14:20;23.47;;;9.83;;
21046;SDS011;10682;50.874;3.656;2022-12-07T09:16:48;19.37;;;9.97;;
21046;SDS011;10682;50.874;3.656;2022-12-07T09:19:14;31.00;;;10.90;;
21046;SDS011;10682;50.874;3.656;2022-12-07T09:21:41;22.93;;;10.20;;
21046;SDS011;10682;50.874;3.656;2022-12-07T09:24:08;22.70;;;10.03;;
21046;SDS011;10682;50.874;3.656;2022-12-07T09:26:35;24.27;;;10.03;;
21046;SDS011;10682;50.874;3.656;2022-12-07T09:29:04;23.30;;;10.10;;
21046;SDS011;10682;50.874;3.656;2022-12-07T09:31:31;20.10;;;9.47;;
21046;SDS011;10682;50.874;3.656;2022-12-07T09:33:58;21.87;;;10.20;;
21046;SDS011;10682;50.874;3.656;2022-12-07T09:36:27;23.90;;;10.50;;
21046;SDS011;10682;50.874;3.656;2022-12-07T09:38:55;23.13;;;9.10;;
21046;SDS011;10682;50.874;3.656;2022-12-07T09:41:22;26.23;;;9.43;;
21046;SDS011;10682;50.874;3.656;2022-12-07T09:43:52;24.00;;;9.23;;
21046;SDS011;10682;50.874;3.656;2022-12-07T09:46:31;20.30;;;9.63;;
21046;SDS011;10682;50.874;3.656;2022-12-07T09:49:09;35.60;;;11.77;;
21046;SDS011;10682;50.874;3.656;2022-12-07T09:51:42;31.13;;;11.43;;
21046;SDS011;10682;50.874;3.656;2022-12-07T09:54:11;22.30;;;9.83;;
21046;SDS011;10682;50.874;3.656;2022-12-07T09:56:41;24.73;;;9.70;;
21046;SDS011;10682;50.874;3.656;2022-12-07T09:59:12;23.03;;;8.43;;
21046;SDS011;10682;50.874;3.656;2022-12-07T10:01:44;19.43;;;9.30;;
21046;SDS011;10682;50.874;3.656;2022-12-07T10:04:18;25.80;;;10.33;;
21046;SDS011;10682;50.874;3.656;2022-12-07T10:06:48;23.90;;;9.80;;
21046;SDS011;10682;50.874;3.656;2022-12-07T10:09:18;25.50;;;8.57;;
21046;SDS011;10682;50.874;3.656;2022-12-07T10:12:05;28.73;;;8.93;;
21046;SDS011;10682;50.874;3.656;2022-12-07T10:14:37;22.90;;;8.60;;
21046;SDS011;10682;50.874;3.656;2022-12-07T10:17:37;21.47;;;8.10;;
21046;SDS011;10682;50.874;3.656;2022-12-07T10:22:56;22.43;;;8.57;;
21046;SDS011;10682;50.874;3.656;2022-12-07T10:25:27;16.57;;;8.47;;
21046;SDS011;10682;50.874;3.656;2022-12-07T10:28:10;19.23;;;6.90;;
21046;SDS011;10682;50.874;3.656;2022-12-07T10:30:51;18.73;;;8.40;;
21046;SDS011;10682;50.874;3.656;2022-12-07T10:36:00;21.17;;;7.40;;
21046;SDS011;10682;50.874;3.656;2022-12-07T10:38:45;25.20;;;6.80;;
21046;SDS011;10682;50.874;3.656;2022-12-07T10:41:15;17.37;;;6.37;;
21046;SDS011;10682;50.874;3.656;2022-12-07T10:43:49;17.27;;;7.00;;
21046;SDS011;10682;50.874;3.656;2022-12-07T10:52:21;23.77;;;11.40;;
21046;SDS011;10682;50.874;3.656;2022-12-07T10:55:20;16.13;;;6.40;;
21046;SDS011;10682;50.874;3.656;2022-12-07T11:00:41;15.93;;;7.07;;
21046;SDS011;10682;50.874;3.656;2022-12-07T11:03:28;11.27;;;5.80;;
21046;SDS011;10682;50.874;3.656;2022-12-07T11:18:28;14.93;;;5.23;;
21046;SDS011;10682;50.874;3.656;2022-12-07T11:21:25;13.43;;;5.07;;
21046;SDS011;10682;50.874;3.656;2022-12-07T11:27:23;19.43;;;4.93;;
21046;SDS011;10682;50.874;3.656;2022-12-07T11:30:10;12.93;;;4.80;;
21046;SDS011;10682;50.874;3.656;2022-12-07T11:38:12;10.03;;;4.27;;
21046;SDS011;10682;50.874;3.656;2022-12-07T11:40:51;8.97;;;4.47;;
21046;SDS011;10682;50.874;3.656;2022-12-07T11:43:49;12.03;;;4.40;;
21046;SDS011;10682;50.874;3.656;2022-12-07T11:46:44;13.17;;;4.40;;
21046;SDS011;10682;50.874;3.656;2022-12-07T11:52:43;10.97;;;4.30;;
21046;SDS011;10682;50.874;3.656;2022-12-07T11:56:03;9.30;;;4.00;;
21046;SDS011;10682;50.874;3.656;2022-12-07T12:06:37;17.90;;;3.80;;
21046;SDS011;10682;50.874;3.656;2022-12-07T12:09:12;9.13;;;3.40;;
21046;SDS011;10682;50.874;3.656;2022-12-07T12:18:51;7.13;;;2.70;;
21046;SDS011;10682;50.874;3.656;2022-12-07T12:21:30;8.33;;;3.07;;
21046;SDS011;10682;50.874;3.656;2022-12-07T12:26:35;8.83;;;3.20;;
21046;SDS011;10682;50.874;3.656;2022-12-07T12:29:19;9.47;;;3.03;;
21046;SDS011;10682;50.874;3.656;2022-12-07T12:32:05;8.93;;;3.00;;
21046;SDS011;10682;50.874;3.656;2022-12-07T12:35:19;11.93;;;3.93;;
21046;SDS011;10682;50.874;3.656;2022-12-07T12:38:34;15.03;;;3.50;;
21046;SDS011;10682;50.874;3.656;2022-12-07T12:41:00;10.50;;;3.23;;
21046;SDS011;10682;50.874;3.656;2022-12-07T12:43:44;9.93;;;4.73;;
21046;SDS011;10682;50.874;3.656;2022-12-07T12:51:46;13.23;;;4.10;;
21046;SDS011;10682;50.874;3.656;2022-12-07T12:59:32;3.90;;;1.30;;
21046;SDS011;10682;50.874;3.656;2022-12-07T13:18:45;1.30;;;0.77;;
21046;SDS011;10682;50.874;3.656;2022-12-07T13:31:40;3.53;;;0.70;;
21046;SDS011;10682;50.874;3.656;2022-12-07T13:34:28;5.17;;;0.90;;
21046;SDS011;10682;50.874;3.656;2022-12-07T13:36:56;4.93;;;0.97;;
21046;SDS011;10682;50.874;3.656;2022-12-07T13:39:25;6.33;;;1.20;;
21046;SDS011;10682;50.874;3.656;2022-12-07T13:41:54;3.07;;;0.80;;
21046;SDS011;10682;50.874;3.656;2022-12-07T13:44:24;4.17;;;1.27;;
21046;SDS011;10682;50.874;3.656;2022-12-07T13:49:36;5.80;;;1.60;;
21046;SDS011;10682;50.874;3.656;2022-12-07T13:54:55;7.90;;;2.17;;
21046;SDS011;10682;50.874;3.656;2022-12-07T13:57:27;8.83;;;2.37;;
21046;SDS011;10682;50.874;3.656;2022-12-07T13:59:57;7.40;;;2.30;;
21046;SDS011;10682;50.874;3.656;2022-12-07T14:02:29;7.63;;;3.27;;
21046;SDS011;10682;50.874;3.656;2022-12-07T14:07:55;9.70;;;3.10;;
21046;SDS011;10682;50.874;3.656;2022-12-07T14:10:32;8.10;;;3.57;;
21046;SDS011;10682;50.874;3.656;2022-12-07T14:16:54;10.27;;;4.00;;
21046;SDS011;10682;50.874;3.656;2022-12-07T14:19:00;9.33;;;3.83;;
21046;SDS011;10682;50.874;3.656;2022-12-07T14:21:32;10.00;;;3.93;;
21046;SDS011;10682;50.874;3.656;2022-12-07T14:26:47;11.57;;;4.10;;
21046;SDS011;10682;50.874;3.656;2022-12-07T14:31:49;9.47;;;3.70;;
21046;SDS011;10682;50.874;3.656;2022-12-07T14:34:16;12.73;;;4.00;;
21046;SDS011;10682;50.874;3.656;2022-12-07T14:36:43;10.10;;;3.40;;
21046;SDS011;10682;50.874;3.656;2022-12-07T14:39:10;9.63;;;3.40;;
21046;SDS011;10682;50.874;3.656;2022-12-07T14:41:39;13.23;;;3.77;;
21046;SDS011;10682;50.874;3.656;2022-12-07T14:44:22;12.00;;;3.43;;
21046;SDS011;10682;50.874;3.656;2022-12-07T14:46:54;8.90;;;2.87;;
21046;SDS011;10682;50.874;3.656;2022-12-07T14:49:41;11.80;;;4.50;;
21046;SDS011;10682;50.874;3.656;2022-12-07T14:52:16;11.27;;;3.60;;
21046;SDS011;10682;50.874;3.656;2022-12-07T14:55:20;12.23;;;3.30;;
21046;SDS011;10682;50.874;3.656;2022-12-07T14:57:53;10.97;;;3.73;;
21046;SDS011;10682;50.874;3.656;2022-12-07T15:00:22;15.23;;;3.93;;
21046;SDS011;10682;50.874;3.656;2022-12-07T15:02:51;7.13;;;2.93;;
21046;SDS011;10682;50.874;3.656;2022-12-07T15:05:19;5.23;;;2.67;;
21046;SDS011;10682;50.874;3.656;2022-12-07T15:07:46;11.23;;;3.90;;
21046;SDS011;10682;50.874;3.656;2022-12-07T15:10:24;10.97;;;4.10;;
21046;SDS011;10682;50.874;3.656;2022-12-07T15:12:56;14.50;;;5.37;;
21046;SDS011;10682;50.874;3.656;2022-12-07T15:15:47;20.17;;;8.83;;
21046;SDS011;10682;50.874;3.656;2022-12-07T15:18:16;26.17;;;12.87;;
21046;SDS011;10682;50.874;3.656;2022-12-07T15:20:45;16.50;;;9.47;;
21046;SDS011;10682;50.874;3.656;2022-12-07T15:23:12;16.20;;;7.57;;
21046;SDS011;10682;50.874;3.656;2022-12-07T15:25:40;19.17;;;8.93;;
21046;SDS011;10682;50.874;3.656;2022-12-07T15:28:09;13.23;;;6.07;;
21046;SDS011;10682;50.874;3.656;2022-12-07T15:30:39;10.00;;;4.90;;
21046;SDS011;10682;50.874;3.656;2022-12-07T15:33:09;14.27;;;7.23;;
21046;SDS011;10682;50.874;3.656;2022-12-07T15:35:40;24.77;;;15.83;;
21046;SDS011;10682;50.874;3.656;2022-12-07T15:38:09;17.53;;;10.97;;
21046;SDS011;10682;50.874;3.656;2022-12-07T15:40:36;23.33;;;11.57;;
21046;SDS011;10682;50.874;3.656;2022-12-07T15:43:03;15.93;;;10.30;;
21046;SDS011;10682;50.874;3.656;2022-12-07T15:45:31;18.27;;;11.07;;
21046;SDS011;10682;50.874;3.656;2022-12-07T15:47:58;20.30;;;9.97;;
21046;SDS011;10682;50.874;3.656;2022-12-07T15:50:44;22.67;;;15.23;;
21046;SDS011;10682;50.874;3.656;2022-12-07T15:53:12;19.80;;;8.93;;
21046;SDS011;10682;50.874;3.656;2022-12-07T15:55:39;12.37;;;5.30;;
21046;SDS011;10682;50.874;3.656;2022-12-07T15:58:06;11.17;;;4.80;;
21046;SDS011;10682;50.874;3.656;2022-12-07T16:00:33;13.13;;;5.60;;
21046;SDS011;10682;50.874;3.656;2022-12-07T16:03:00;11.83;;;6.03;;
21046;SDS011;10682;50.874;3.656;2022-12-07T16:05:27;12.30;;;5.20;;
21046;SDS011;10682;50.874;3.656;2022-12-07T16:07:54;15.70;;;5.63;;
21046;SDS011;10682;50.874;3.656;2022-12-07T16:10:21;13.77;;;6.40;;
21046;SDS011;10682;50.874;3.656;2022-12-07T16:12:48;13.17;;;6.03;;
21046;SDS011;10682;50.874;3.656;2022-12-07T16:15:15;14.73;;;6.97;;
21046;SDS011;10682;50.874;3.656;2022-12-07T16:17:49;20.67;;;8.23;;
21046;SDS011;10682;50.874;3.656;2022-12-07T16:20:17;34.87;;;13.93;;
21046;SDS011;10682;50.874;3.656;2022-12-07T16:22:44;22.90;;;8.10;;
21046;SDS011;10682;50.874;3.656;2022-12-07T16:25:11;19.30;;;7.00;;
21046;SDS011;10682;50.874;3.656;2022-12-07T16:27:38;19.63;;;8.73;;
21046;SDS011;10682;50.874;3.656;2022-12-07T16:30:06;33.97;;;13.33;;
21046;SDS011;10682;50.874;3.656;2022-12-07T16:32:33;20.77;;;7.20;;
21046;SDS011;10682;50.874;3.656;2022-12-07T16:35:00;11.73;;;6.10;;
21046;SDS011;10682;50.874;3.656;2022-12-07T16:37:28;16.63;;;7.73;;
21046;SDS011;10682;50.874;3.656;2022-12-07T16:39:55;36.87;;;12.60;;
21046;SDS011;10682;50.874;3.656;2022-12-07T16:42:22;12.80;;;5.03;;
21046;SDS011;10682;50.874;3.656;2022-12-07T16:44:49;13.97;;;5.60;;
21046;SDS011;10682;50.874;3.656;2022-12-07T16:47:16;68.27;;;19.00;;
21046;SDS011;10682;50.874;3.656;2022-12-07T16:49:43;30.67;;;11.10;;
21046;SDS011;10682;50.874;3.656;2022-12-07T16:52:10;19.73;;;7.60;;
21046;SDS011;10682;50.874;3.656;2022-12-07T16:54:49;14.83;;;6.10;;
21046;SDS011;10682;50.874;3.656;2022-12-07T16:57:16;35.83;;;16.90;;
21046;SDS011;10682;50.874;3.656;2022-12-07T16:59:48;11.47;;;5.73;;
21046;SDS011;10682;50.874;3.656;2022-12-07T17:02:16;19.53;;;6.77;;
21046;SDS011;10682;50.874;3.656;2022-12-07T17:04:44;19.20;;;6.33;;
21046;SDS011;10682;50.874;3.656;2022-12-07T17:07:11;13.30;;;5.43;;
21046;SDS011;10682;50.874;3.656;2022-12-07T17:09:38;13.50;;;5.90;;